createdAt,value
2022-12-15T00:01:43.651Z,-7.18
2022-12-15T00:05:11.265Z,-7.19
2022-12-15T00:08:37.538Z,-7.25
2022-12-15T00:12:04.053Z,-7.22
2022-12-15T00:15:30.426Z,-7.23
2022-12-15T00:18:56.935Z,-7.41
2022-12-15T00:22:25.271Z,-7.15
2022-12-15T00:25:51.649Z,-7.37
2022-12-15T00:29:17.728Z,-7.31
2022-12-15T00:32:44.053Z,-7.26
2022-12-15T00:36:10.123Z,-7.21
2022-12-15T00:39:20.399Z,-7.17
2022-12-15T00:42:29.589Z,-7.03
2022-12-15T00:45:56.361Z,-7.11
2022-12-15T00:49:25.279Z,-7.18
2022-12-15T00:52:51.842Z,-7.08
2022-12-15T00:56:19.652Z,-7.02
2022-12-15T00:59:45.878Z,-7.20
2022-12-15T01:03:12.486Z,-7.10
2022-12-15T01:06:39.292Z,-6.99
2022-12-15T01:10:05.303Z,-7.32
2022-12-15T01:13:34.198Z,-7.03
2022-12-15T01:17:00.625Z,-7.19
2022-12-15T01:20:19.938Z,-7.07
2022-12-15T01:23:29.335Z,-6.99
2022-12-15T01:26:39.431Z,-7.07
2022-12-15T01:29:49.893Z,-7.04
2022-12-15T01:33:00.157Z,-6.97
2022-12-15T01:36:10.147Z,-6.88
2022-12-15T01:39:19.095Z,-6.83
2022-12-15T01:42:27.010Z,-6.89
2022-12-15T01:46:05.176Z,-6.64
2022-12-15T01:49:17.254Z,-6.91
2022-12-15T01:52:26.166Z,-6.93
2022-12-15T01:55:36.221Z,-6.84
2022-12-15T01:58:46.649Z,-6.70
2022-12-15T02:01:57.186Z,-6.65
2022-12-15T02:05:07.186Z,-6.92
2022-12-15T02:08:16.287Z,-6.70
2022-12-15T02:11:39.722Z,-6.57
2022-12-15T02:15:00.956Z,-6.58
2022-12-15T02:18:18.638Z,-6.71
2022-12-15T02:21:31.826Z,-6.90
2022-12-15T02:24:55.440Z,-6.93
2022-12-15T02:28:05.597Z,-6.91
2022-12-15T02:31:34.743Z,-6.76
2022-12-15T02:34:47.042Z,-6.83
2022-12-15T02:37:56.201Z,-6.76
2022-12-15T02:41:06.452Z,-6.72
2022-12-15T02:44:16.262Z,-6.54
2022-12-15T02:47:34.150Z,-6.53
2022-12-15T02:51:09.749Z,-6.63
2022-12-15T02:54:34.502Z,-6.72
2022-12-15T02:57:49.189Z,-6.56
2022-12-15T03:01:00.737Z,-6.93
2022-12-15T03:04:12.271Z,-7.33
2022-12-15T03:07:21.165Z,-7.15
2022-12-15T03:10:31.228Z,-7.73
2022-12-15T03:13:40.992Z,-7.68
2022-12-15T03:16:49.982Z,-7.30
2022-12-15T03:20:00.326Z,-7.57
2022-12-15T03:23:08.947Z,-7.04
2022-12-15T03:26:17.808Z,-6.96
2022-12-15T03:29:26.641Z,-7.07
2022-12-15T03:32:35.502Z,-6.97
2022-12-15T03:35:45.840Z,-6.73
2022-12-15T03:38:54.488Z,-6.56
2022-12-15T03:42:03.460Z,-6.71
2022-12-15T03:45:12.409Z,-6.83
2022-12-15T03:48:22.302Z,-6.60
2022-12-15T03:51:32.627Z,-6.46
2022-12-15T03:54:41.259Z,-6.37
2022-12-15T03:57:51.081Z,-6.56
2022-12-15T04:01:00.029Z,-6.62
2022-12-15T04:04:09.869Z,-6.53
2022-12-15T04:07:20.252Z,-6.40
2022-12-15T04:10:34.316Z,-6.39
2022-12-15T04:13:44.461Z,-6.39
2022-12-15T04:16:53.420Z,-6.41
2022-12-15T04:20:11.371Z,-6.38
2022-12-15T04:23:21.806Z,-6.32
2022-12-15T04:26:48.001Z,-6.43
2022-12-15T04:30:15.923Z,-6.51
2022-12-15T04:33:43.871Z,-6.50
2022-12-15T04:37:11.617Z,-6.40
2022-12-15T04:40:39.232Z,-6.40
2022-12-15T04:44:05.689Z,-6.50
2022-12-15T04:47:31.596Z,-6.49
2022-12-15T04:50:58.081Z,-6.57
2022-12-15T04:54:24.634Z,-6.62
2022-12-15T04:57:52.224Z,-6.58
2022-12-15T05:01:18.813Z,-6.63
2022-12-15T05:04:45.559Z,-6.75
2022-12-15T05:08:16.425Z,-6.59
2022-12-15T05:11:42.776Z,-6.72
2022-12-15T05:15:10.391Z,-6.72
2022-12-15T05:18:37.095Z,-7.14
2022-12-15T05:22:03.700Z,-7.13
2022-12-15T05:25:30.118Z,-6.99
2022-12-15T05:28:56.735Z,-6.80
2022-12-15T05:32:07.449Z,-6.86
2022-12-15T05:35:16.423Z,-6.86
2022-12-15T05:38:25.303Z,-6.77
2022-12-15T05:41:34.159Z,-7.13
2022-12-15T05:44:43.367Z,-7.18
2022-12-15T05:47:54.655Z,-7.28
2022-12-15T05:51:05.525Z,-7.29
2022-12-15T05:54:16.574Z,-7.22
2022-12-15T05:57:25.417Z,-7.19
2022-12-15T06:00:34.332Z,-7.07
2022-12-15T06:03:44.685Z,-7.02
2022-12-15T06:06:53.582Z,-7.08
2022-12-15T06:10:02.546Z,-7.28
2022-12-15T06:13:11.481Z,-7.28
2022-12-15T06:16:21.707Z,-7.17
2022-12-15T06:19:31.783Z,-7.21
2022-12-15T06:22:43.242Z,-7.34
2022-12-15T06:25:54.292Z,-7.19
2022-12-15T06:29:04.838Z,-6.96
2022-12-15T06:32:13.809Z,-7.31
2022-12-15T06:35:24.140Z,-7.28
2022-12-15T06:38:32.782Z,-7.07
2022-12-15T06:41:41.750Z,-7.50
2022-12-15T06:44:50.679Z,-7.51
2022-12-15T06:48:01.649Z,-7.64
2022-12-15T06:51:16.814Z,-7.52
2022-12-15T06:54:26.421Z,-7.49
2022-12-15T06:57:36.709Z,-7.48
2022-12-15T07:00:45.964Z,-7.38
2022-12-15T07:03:55.300Z,-7.72
2022-12-15T07:07:06.653Z,-7.76
2022-12-15T07:10:16.019Z,-7.64
2022-12-15T07:13:25.344Z,-7.35
2022-12-15T07:16:34.628Z,-7.24
2022-12-15T07:19:43.964Z,-7.34
2022-12-15T07:22:54.272Z,-7.31
2022-12-15T07:26:09.632Z,-7.23
2022-12-15T07:29:23.507Z,-7.53
2022-12-15T07:32:32.682Z,-7.65
2022-12-15T07:35:41.616Z,-7.51
2022-12-15T07:38:52.234Z,-7.26
2022-12-15T07:42:01.358Z,-7.14
2022-12-15T07:45:12.134Z,-6.88
2022-12-15T07:48:21.528Z,-6.80
2022-12-15T07:51:30.469Z,-6.97
2022-12-15T07:54:40.824Z,-6.88
2022-12-15T07:57:49.851Z,-7.15
2022-12-15T08:01:01.534Z,-6.88
2022-12-15T08:04:11.505Z,-7.33
2022-12-15T08:07:20.468Z,-7.30
2022-12-15T08:10:30.728Z,-6.84
2022-12-15T08:17:09.332Z,-6.52
2022-12-15T08:20:18.449Z,-6.40
2022-12-15T08:23:29.146Z,-6.54
2022-12-15T08:26:41.954Z,-6.23
2022-12-15T08:29:52.413Z,-6.33
2022-12-15T08:33:03.293Z,-6.43
2022-12-15T08:36:13.819Z,-6.29
2022-12-15T08:39:22.712Z,-6.42
2022-12-15T08:42:36.378Z,-6.44
2022-12-15T08:45:45.386Z,-6.68
2022-12-15T08:48:54.753Z,-6.38
2022-12-15T08:52:03.614Z,-6.23
2022-12-15T08:55:15.615Z,-6.68
2022-12-15T08:58:28.189Z,-7.08
2022-12-15T09:01:39.664Z,-6.66
2022-12-15T09:04:48.641Z,-6.44
2022-12-15T09:08:04.658Z,-6.90
2022-12-15T09:11:15.496Z,-6.69
2022-12-15T09:14:29.441Z,-6.55
2022-12-15T09:17:38.892Z,-6.55
2022-12-15T09:20:49.114Z,-6.83
2022-12-15T09:24:02.029Z,-6.70
2022-12-15T09:27:11.046Z,-6.56
2022-12-15T09:30:21.408Z,-6.52
2022-12-15T09:33:30.717Z,-6.82
2022-12-15T09:36:40.949Z,-6.71
2022-12-15T09:39:51.342Z,-6.82
2022-12-15T09:43:32.957Z,-6.51
2022-12-15T09:46:41.709Z,-6.64
2022-12-15T09:49:55.731Z,-6.70
2022-12-15T09:53:17.714Z,-6.75
2022-12-15T09:56:41.526Z,-6.82
2022-12-15T10:00:07.520Z,-6.34
2022-12-15T10:03:31.673Z,-6.32
2022-12-15T10:06:43.604Z,-6.93
2022-12-15T10:09:52.501Z,-6.66
2022-12-15T10:13:07.334Z,-6.66
2022-12-15T10:16:22.802Z,-6.38
2022-12-15T10:19:39.522Z,-6.52
2022-12-15T10:22:50.435Z,-6.72
2022-12-15T10:26:21.762Z,-6.39
2022-12-15T10:29:37.506Z,-6.67
2022-12-15T10:32:50.748Z,-6.55
2022-12-15T10:36:01.637Z,-6.68
2022-12-15T10:39:14.314Z,-6.62
2022-12-15T10:42:25.597Z,-6.78
2022-12-15T10:45:38.812Z,-6.85
2022-12-15T10:48:49.973Z,-6.84
2022-12-15T10:52:02.558Z,-6.56
2022-12-15T10:55:38.261Z,-6.57
2022-12-15T10:58:50.566Z,-6.60
2022-12-15T11:02:24.120Z,-6.85
2022-12-15T11:05:36.028Z,-6.82
2022-12-15T11:08:47.546Z,-6.57
2022-12-15T11:12:28.483Z,-6.79
2022-12-15T11:15:50.796Z,-6.93
2022-12-15T11:19:04.527Z,-6.80
2022-12-15T11:22:18.394Z,-6.85
2022-12-15T11:25:34.740Z,-6.96
2022-12-15T11:28:48.516Z,-6.99
2022-12-15T11:32:03.117Z,-6.97
2022-12-15T11:35:17.553Z,-7.30
2022-12-15T11:38:32.348Z,-7.04
2022-12-15T11:41:46.381Z,-7.44
2022-12-15T11:45:04.793Z,-7.23
2022-12-15T11:48:17.361Z,-7.33
2022-12-15T11:51:41.670Z,-6.85
2022-12-15T11:54:56.052Z,-7.01
2022-12-15T11:58:29.300Z,-7.46
2022-12-15T12:02:02.384Z,-6.77
2022-12-15T12:05:28.384Z,-7.06
2022-12-15T12:08:59.587Z,-6.88
2022-12-15T12:12:24.022Z,-6.68
2022-12-15T12:15:37.043Z,-7.01
2022-12-15T12:18:50.487Z,-7.08
2022-12-15T12:22:04.346Z,-7.08
2022-12-15T12:25:16.252Z,-6.97
2022-12-15T12:28:31.382Z,-7.26
2022-12-15T12:31:45.069Z,-7.03
2022-12-15T12:38:32.644Z,-7.18
2022-12-15T12:41:47.839Z,-7.01
2022-12-15T12:44:56.711Z,-7.35
2022-12-15T12:48:10.848Z,-7.12
2022-12-15T12:51:25.238Z,-7.38
2022-12-15T12:54:48.553Z,-7.50
2022-12-15T12:57:59.378Z,-7.39
2022-12-15T13:01:20.399Z,-7.15
2022-12-15T13:04:44.633Z,-7.46
2022-12-15T13:07:56.244Z,-7.41
2022-12-15T13:11:43.391Z,-7.13
2022-12-15T13:14:56.075Z,-7.48
2022-12-15T13:18:08.756Z,-7.61
2022-12-15T13:21:50.095Z,-7.78
2022-12-15T13:24:59.268Z,-7.76
2022-12-15T13:28:27.245Z,-7.35
2022-12-15T13:31:49.077Z,-7.37
2022-12-15T13:34:59.410Z,-7.53
2022-12-15T13:38:19.044Z,-7.38
2022-12-15T13:41:27.985Z,-7.48
2022-12-15T13:44:39.602Z,-7.40
2022-12-15T13:47:52.828Z,-7.56
2022-12-15T13:51:18.503Z,-7.37
2022-12-15T13:54:33.080Z,-7.49
2022-12-15T13:57:49.383Z,-7.58
2022-12-15T14:00:59.238Z,-7.88
2022-12-15T14:04:15.724Z,-7.52
2022-12-15T14:07:24.804Z,-8.04
2022-12-15T14:10:41.866Z,-7.52
2022-12-15T14:13:54.285Z,-7.88
2022-12-15T14:17:05.263Z,-7.74
2022-12-15T14:20:20.639Z,-7.60
2022-12-15T14:23:31.334Z,-7.71
2022-12-15T14:26:42.849Z,-7.73
2022-12-15T14:29:56.330Z,-8.11
2022-12-15T14:33:12.432Z,-7.93
2022-12-15T14:36:22.005Z,-8.06
2022-12-15T14:39:36.063Z,-8.32
2022-12-15T14:42:46.979Z,-8.01
2022-12-15T14:46:09.868Z,-7.85
2022-12-15T14:49:24.090Z,-7.90
2022-12-15T14:52:35.380Z,-8.38
2022-12-15T14:55:44.288Z,-8.16
2022-12-15T14:59:00.520Z,-8.07
2022-12-15T15:02:15.727Z,-7.83
2022-12-15T15:03:05.022Z,-7.14
2022-12-15T15:05:27.956Z,-8.19
2022-12-15T15:08:38.764Z,-8.39
2022-12-15T15:11:50.110Z,-8.06
2022-12-15T15:15:04.020Z,-8.07
2022-12-15T15:18:15.508Z,-7.92
2022-12-15T15:21:26.028Z,-8.09
2022-12-15T15:24:37.610Z,-8.05
2022-12-15T15:27:46.485Z,-7.82
2022-12-15T15:31:00.614Z,-7.85
2022-12-15T15:34:09.535Z,-7.69
2022-12-15T15:37:20.365Z,-7.81
2022-12-15T15:40:29.312Z,-7.67
2022-12-15T15:43:38.118Z,-7.57
2022-12-15T15:46:50.685Z,-7.79
2022-12-15T15:50:00.166Z,-7.93
2022-12-15T15:53:12.032Z,-7.76
2022-12-15T15:56:21.322Z,-7.50
2022-12-15T15:59:31.158Z,-7.55
2022-12-15T16:02:41.702Z,-7.52
2022-12-15T16:05:50.971Z,-7.77
2022-12-15T16:08:59.848Z,-7.72
2022-12-15T16:12:13.212Z,-7.49
2022-12-15T16:15:24.307Z,-7.32
2022-12-15T16:18:35.348Z,-7.31
2022-12-15T16:21:44.584Z,-7.22
2022-12-15T16:24:53.493Z,-7.45
2022-12-15T16:28:02.473Z,-7.58
2022-12-15T16:31:15.950Z,-7.12
2022-12-15T16:34:26.210Z,-7.11
2022-12-15T16:37:39.484Z,-6.93
2022-12-15T16:40:48.708Z,-7.18
2022-12-15T16:43:58.673Z,-7.03
2022-12-15T16:47:07.496Z,-6.85
2022-12-15T16:50:19.694Z,-6.88
2022-12-15T16:53:30.783Z,-6.95
2022-12-15T16:56:39.616Z,-6.77
2022-12-15T16:59:45.519Z,-6.75
2022-12-15T17:02:27.219Z,-6.62
2022-12-15T17:04:56.335Z,-6.77
2022-12-15T17:07:28.019Z,-6.98
2022-12-15T17:09:56.841Z,-7.76
2022-12-15T17:12:25.509Z,-7.78
2022-12-15T17:14:54.322Z,-7.29
2022-12-15T17:17:22.991Z,-7.26
2022-12-15T17:20:27.496Z,-6.98
2022-12-15T17:22:42.157Z,-6.64
2022-12-15T17:25:16.430Z,-6.44
2022-12-15T17:27:45.161Z,-6.63
2022-12-15T17:30:15.249Z,-6.48
2022-12-15T17:32:44.062Z,-6.51
2022-12-15T17:35:13.099Z,-6.35
2022-12-15T17:37:43.366Z,-6.32
2022-12-15T17:40:17.747Z,-6.29
2022-12-15T17:42:47.259Z,-6.33
2022-12-15T17:45:18.201Z,-6.49
2022-12-15T17:47:47.018Z,-6.50
2022-12-15T17:50:15.817Z,-6.38
2022-12-15T17:52:46.999Z,-6.45
2022-12-15T17:55:27.911Z,-6.55
2022-12-15T17:57:59.279Z,-6.61
2022-12-15T18:00:29.562Z,-6.31
2022-12-15T18:02:59.772Z,-6.15
2022-12-15T18:05:31.196Z,-6.02
2022-12-15T18:08:02.861Z,-6.11
2022-12-15T18:10:33.650Z,-6.09
2022-12-15T18:13:02.477Z,-6.14
2022-12-15T18:15:33.508Z,-6.07
2022-12-15T18:18:02.167Z,-6.09
2022-12-15T18:20:31.107Z,-6.17
2022-12-15T18:23:01.140Z,-6.09
2022-12-15T18:25:30.267Z,-6.18
2022-12-15T18:27:59.583Z,-6.12
2022-12-15T18:30:28.517Z,-6.10
2022-12-15T18:32:58.992Z,-6.13
2022-12-15T18:35:34.930Z,-6.22
2022-12-15T18:38:13.346Z,-7.51
2022-12-15T18:40:42.088Z,-6.74
2022-12-15T18:43:15.581Z,-6.27
2022-12-15T18:45:44.817Z,-6.25
2022-12-15T18:48:20.475Z,-6.19
2022-12-15T18:50:51.653Z,-6.88
2022-12-15T18:53:25.445Z,-6.52
2022-12-15T18:55:54.057Z,-6.60
2022-12-15T18:58:24.571Z,-6.33
2022-12-15T19:00:53.630Z,-6.70
2022-12-15T19:03:23.168Z,-6.43
2022-12-15T19:05:56.511Z,-6.67
2022-12-15T19:08:26.944Z,-7.23
2022-12-15T19:10:57.746Z,-7.01
2022-12-15T19:13:28.875Z,-7.14
2022-12-15T19:15:58.342Z,-7.23
2022-12-15T19:18:44.820Z,-6.69
2022-12-15T19:21:45.518Z,-6.56
2022-12-15T19:24:17.980Z,-6.73
2022-12-15T19:26:46.615Z,-6.37
2022-12-15T19:29:18.048Z,-6.32
2022-12-15T19:31:46.627Z,-6.79
2022-12-15T19:34:15.490Z,-6.67
2022-12-15T19:36:44.351Z,-6.71
2022-12-15T19:39:22.437Z,-6.71
2022-12-15T19:41:51.593Z,-6.71
2022-12-15T19:44:20.305Z,-6.52
2022-12-15T19:46:49.480Z,-6.62
2022-12-15T19:49:18.061Z,-6.73
2022-12-15T19:51:46.852Z,-7.30
2022-12-15T19:54:17.478Z,-6.88
2022-12-15T19:56:47.693Z,-6.85
2022-12-15T19:59:22.392Z,-6.68
2022-12-15T20:01:51.920Z,-6.52
2022-12-15T20:04:24.053Z,-6.33
2022-12-15T20:06:53.107Z,-6.31
2022-12-15T20:09:21.732Z,-6.21
2022-12-15T20:11:51.721Z,-6.13
2022-12-15T20:14:20.309Z,-6.32
2022-12-15T20:16:50.456Z,-6.11
2022-12-15T20:19:19.260Z,-6.18
2022-12-15T20:21:47.977Z,-6.05
2022-12-15T20:24:18.795Z,-5.98
2022-12-15T20:26:47.922Z,-6.08
2022-12-15T20:29:23.400Z,-6.05
2022-12-15T20:31:52.839Z,-6.57
2022-12-15T20:34:22.172Z,-6.51
2022-12-15T20:36:50.801Z,-6.67
2022-12-15T20:39:22.511Z,-6.79
2022-12-15T20:41:51.176Z,-6.88
2022-12-15T20:44:21.307Z,-7.05
2022-12-15T20:46:50.203Z,-7.27
2022-12-15T20:49:20.647Z,-7.07
2022-12-15T20:51:50.971Z,-7.05
2022-12-15T20:54:21.757Z,-7.04
2022-12-15T20:56:50.890Z,-7.14
2022-12-15T20:59:21.000Z,-7.21
2022-12-15T21:01:49.761Z,-7.34
2022-12-15T21:04:25.913Z,-7.34
2022-12-15T21:06:55.407Z,-7.44
2022-12-15T21:09:24.406Z,-7.46
2022-12-15T21:11:54.604Z,-7.52
2022-12-15T21:14:25.275Z,-7.47
2022-12-15T21:16:53.674Z,-7.52
2022-12-15T21:19:23.161Z,-7.59
2022-12-15T21:21:55.203Z,-7.59
2022-12-15T21:24:25.734Z,-7.57
2022-12-15T21:26:54.960Z,-7.60
2022-12-15T21:29:27.227Z,-7.57
2022-12-15T21:31:55.499Z,-7.89
2022-12-15T21:34:24.204Z,-8.04
2022-12-15T21:36:55.028Z,-7.92
2022-12-15T21:39:29.479Z,-7.85
2022-12-15T21:42:00.808Z,-7.85
2022-12-15T21:44:30.950Z,-7.86
2022-12-15T21:46:59.475Z,-7.75
2022-12-15T21:49:26.831Z,-7.86
2022-12-15T21:51:57.561Z,-7.73
2022-12-15T21:54:31.147Z,-7.68
2022-12-15T21:57:00.388Z,-7.63
2022-12-15T21:59:32.188Z,-7.51
2022-12-15T22:02:01.896Z,-7.48
2022-12-15T22:04:32.181Z,-7.38
2022-12-15T22:07:00.953Z,-7.40
2022-12-15T22:09:29.551Z,-7.34
2022-12-15T22:11:58.287Z,-7.33
2022-12-15T22:14:29.468Z,-7.19
2022-12-15T22:16:59.959Z,-7.08
2022-12-15T22:19:28.642Z,-7.14
2022-12-15T22:21:57.256Z,-7.07
2022-12-15T22:24:25.841Z,-7.02
2022-12-15T22:26:54.407Z,-7.02
2022-12-15T22:29:24.489Z,-6.95
2022-12-15T22:31:52.968Z,-6.88
2022-12-15T22:34:27.735Z,-6.83
2022-12-15T22:36:56.657Z,-6.87
2022-12-15T22:39:25.373Z,-6.89
2022-12-15T22:41:54.065Z,-7.15
2022-12-15T22:44:24.960Z,-7.03
2022-12-15T22:46:54.699Z,-7.14
2022-12-15T22:49:25.133Z,-6.96
2022-12-15T22:51:53.726Z,-7.07
2022-12-15T22:54:25.455Z,-7.03
2022-12-15T22:56:58.497Z,-7.07
2022-12-15T22:59:30.087Z,-7.09
2022-12-15T23:01:58.440Z,-7.18
2022-12-15T23:04:28.629Z,-7.08
2022-12-15T23:06:57.948Z,-7.06
2022-12-15T23:09:26.577Z,-7.10
2022-12-15T23:11:54.212Z,-7.07
2022-12-15T23:14:43.669Z,-7.13
2022-12-15T23:17:11.163Z,-7.07
2022-12-15T23:19:44.521Z,-7.13
2022-12-15T23:22:13.075Z,-7.13
2022-12-15T23:24:41.898Z,-7.25
2022-12-15T23:27:11.486Z,-6.97
2022-12-15T23:29:40.184Z,-7.00
2022-12-15T23:32:08.796Z,-7.10
2022-12-15T23:34:38.232Z,-7.05
2022-12-15T23:37:08.290Z,-7.15
2022-12-15T23:39:37.110Z,-6.89
2022-12-15T23:42:06.011Z,-6.93
2022-12-15T23:44:34.663Z,-7.19
2022-12-15T23:47:03.295Z,-7.10
2022-12-15T23:49:32.503Z,-7.11
2022-12-15T23:52:01.236Z,-6.90
2022-12-15T23:54:31.203Z,-6.95
2022-12-15T23:56:59.807Z,-6.88
2022-12-15T23:59:28.508Z,-6.92
